Time;durP1;ratioP1;P1;durP2;ratioP2;P2;SDS_P1;SDS_P2;PMS_P1;PMS_P2;Temp;Humidity;BMP_temperature;BMP_pressure;BME280_temperature;BME280_humidity;BME280_pressure;Samples;Min_cycle;Max_cycle;Signal;HPM_P1;HPM_P2
2021/05/21 00:00:55;;;;;;;1.33;0.68;;;24.50;43.20;;;;;;5061718;28;20060;-58
2021/05/21 00:03:20;;;;;;;1.58;0.70;;;24.50;43.20;;;;;;5066516;28;20104;-59
2021/05/21 00:05:46;;;;;;;1.65;0.80;;;24.50;43.20;;;;;;5062461;28;20074;-60
2021/05/21 00:08:12;;;;;;;0.65;0.52;;;24.40;43.20;;;;;;5050715;28;20035;-62
2021/05/21 00:10:38;;;;;;;1.15;0.60;;;24.40;43.20;;;;;;5063271;28;20040;-58
2021/05/21 00:13:04;;;;;;;1.25;0.70;;;24.40;43.20;;;;;;5064686;28;20059;-60
2021/05/21 00:15:30;;;;;;;0.77;0.57;;;24.40;43.20;;;;;;5061555;28;20450;-59
2021/05/21 00:17:56;;;;;;;0.88;0.60;;;24.40;43.20;;;;;;5058219;28;20382;-60
2021/05/21 00:20:21;;;;;;;1.20;0.65;;;24.40;43.20;;;;;;5061060;28;20120;-59
2021/05/21 00:22:47;;;;;;;1.85;0.77;;;24.40;43.80;;;;;;5067229;28;20371;-59
2021/05/21 00:25:13;;;;;;;1.00;0.70;;;24.30;43.20;;;;;;5066174;28;20048;-60
2021/05/21 00:27:44;;;;;;;1.33;0.70;;;24.30;43.20;;;;;;5066416;28;20088;-59
2021/05/21 00:30:10;;;;;;;0.63;0.55;;;24.30;43.20;;;;;;5065464;28;20035;-59
2021/05/21 00:32:36;;;;;;;0.95;0.65;;;24.30;43.20;;;;;;5065992;28;20525;-59
2021/05/21 00:35:01;;;;;;;1.85;0.80;;;24.30;43.30;;;;;;5060245;28;20028;-60
2021/05/21 00:37:27;;;;;;;0.90;0.60;;;24.30;43.20;;;;;;5066567;28;20525;-59
2021/05/21 00:39:53;;;;;;;1.08;0.65;;;24.30;43.20;;;;;;5064878;28;20520;-58
2021/05/21 00:42:18;;;;;;;0.95;0.63;;;24.30;43.30;;;;;;5067090;28;20032;-59
2021/05/21 00:45:02;;;;;;;1.02;0.60;;;24.30;43.30;;;;;;5066534;28;20028;-58
2021/05/21 00:47:28;;;;;;;0.70;0.60;;;24.30;43.30;;;;;;5047384;28;20036;-59
2021/05/21 00:49:54;;;;;;;0.75;0.60;;;24.20;43.20;;;;;;5059563;28;20016;-61
2021/05/21 00:52:22;;;;;;;1.73;0.70;;;24.20;43.20;;;;;;5053931;28;20039;-60
2021/05/21 00:54:48;;;;;;;0.90;0.65;;;24.20;43.30;;;;;;5056949;28;20063;-60
2021/05/21 00:57:14;;;;;;;1.00;0.70;;;24.20;43.30;;;;;;5060501;28;20064;-62
2021/05/21 00:59:40;;;;;;;0.80;0.50;;;24.20;43.30;;;;;;5050349;28;20467;-60
2021/05/21 01:02:07;;;;;;;0.65;0.47;;;24.10;43.30;;;;;;5065397;28;20047;-60
2021/05/21 01:04:36;;;;;;;1.00;0.60;;;24.10;43.30;;;;;;5064213;28;20103;-60
2021/05/21 01:07:07;;;;;;;0.77;0.50;;;24.10;43.30;;;;;;5066258;28;20032;-59
2021/05/21 01:09:33;;;;;;;1.85;0.70;;;24.10;43.30;;;;;;5065601;28;20024;-61
2021/05/21 01:12:00;;;;;;;0.85;0.63;;;24.10;43.30;;;;;;5066341;28;20040;-61
2021/05/21 01:14:25;;;;;;;1.10;0.70;;;24.10;43.30;;;;;;5064303;28;20491;-59
2021/05/21 01:16:51;;;;;;;1.27;0.70;;;24.10;43.30;;;;;;5066556;28;20035;-57
2021/05/21 01:19:16;;;;;;;1.63;0.57;;;24.10;43.40;;;;;;5066279;28;20029;-59
2021/05/21 01:21:42;;;;;;;1.55;0.60;;;24.10;43.40;;;;;;5065129;28;20115;-57
2021/05/21 01:24:09;;;;;;;1.00;0.50;;;24.10;43.40;;;;;;5062838;28;20099;-62
2021/05/21 01:26:36;;;;;;;1.10;0.52;;;24.00;43.30;;;;;;5062150;28;20044;-59
2021/05/21 01:29:02;;;;;;;0.95;0.60;;;24.00;43.40;;;;;;5064487;28;20086;-60
2021/05/21 01:31:29;;;;;;;1.25;0.60;;;24.00;43.30;;;;;;5061302;28;20067;-58
2021/05/21 01:33:54;;;;;;;0.55;0.50;;;24.00;43.40;;;;;;5063800;28;20536;-61
2021/05/21 01:36:20;;;;;;;1.83;0.60;;;24.00;43.40;;;;;;5054685;28;20024;-59
2021/05/21 01:38:57;;;;;;;1.02;0.63;;;24.00;43.40;;;;;;5057903;28;20380;-59
2021/05/21 01:41:22;;;;;;;1.77;0.60;;;23.90;43.30;;;;;;5060832;28;20386;-60
2021/05/21 01:43:48;;;;;;;0.85;0.60;;;23.90;43.40;;;;;;5065996;28;20036;-58
2021/05/21 01:46:14;;;;;;;0.75;0.50;;;23.90;43.40;;;;;;5053113;28;20024;-58
2021/05/21 01:48:40;;;;;;;0.85;0.52;;;23.90;43.40;;;;;;5048042;28;20112;-59
2021/05/21 01:51:06;;;;;;;1.27;0.60;;;23.90;43.40;;;;;;5063273;28;20115;-62
2021/05/21 01:53:34;;;;;;;1.58;0.50;;;23.90;43.40;;;;;;5067301;28;20520;-63
2021/05/21 01:56:00;;;;;;;1.15;0.70;;;23.90;43.40;;;;;;5057058;28;20136;-60
2021/05/21 01:58:26;;;;;;;1.67;0.70;;;23.90;43.40;;;;;;5058289;28;20119;-61
2021/05/21 02:00:51;;;;;;;1.42;0.70;;;23.90;43.50;;;;;;5067096;28;20127;-60
2021/05/21 02:03:17;;;;;;;0.63;0.55;;;23.90;43.50;;;;;;5058036;28;20024;-61
2021/05/21 02:05:43;;;;;;;1.13;0.60;;;23.90;43.50;;;;;;5062154;28;20111;-60
2021/05/21 02:08:08;;;;;;;0.70;0.60;;;23.80;43.40;;;;;;5069749;28;20467;-60
2021/05/21 02:10:34;;;;;;;1.20;0.65;;;23.80;43.40;;;;;;5069865;28;20036;-58
2021/05/21 02:12:59;;;;;;;2.08;0.60;;;23.80;43.40;;;;;;5069472;28;20028;-59
2021/05/21 02:15:25;;;;;;;1.05;0.73;;;23.80;43.40;;;;;;5054852;28;20071;-59
2021/05/21 02:17:51;;;;;;;0.80;0.50;;;23.80;43.40;;;;;;5060189;28;20083;-57
2021/05/21 02:20:16;;;;;;;0.88;0.52;;;23.80;43.40;;;;;;5068751;28;20109;-59
2021/05/21 02:22:42;;;;;;;0.60;0.50;;;23.80;43.50;;;;;;5069293;28;20028;-62
2021/05/21 02:25:10;;;;;;;1.00;0.60;;;23.80;43.50;;;;;;5067107;28;20024;-57
2021/05/21 02:27:36;;;;;;;0.98;0.60;;;23.70;43.50;;;;;;5066210;28;20038;-57
2021/05/21 02:30:02;;;;;;;0.88;0.70;;;23.70;43.50;;;;;;5065281;28;20096;-62
2021/05/21 02:32:29;;;;;;;0.52;0.50;;;23.70;43.50;;;;;;5063738;28;20055;-62
2021/05/21 02:34:54;;;;;;;1.17;0.70;;;23.70;43.50;;;;;;5066412;28;20085;-58
2021/05/21 02:37:20;;;;;;;1.10;0.47;;;23.70;43.50;;;;;;5054724;28;20029;-59
2021/05/21 02:39:45;;;;;;;0.75;0.50;;;23.70;43.50;;;;;;5063863;28;20395;-57
2021/05/21 02:42:11;;;;;;;0.60;0.60;;;23.70;43.60;;;;;;5067853;28;20039;-64
2021/05/21 02:44:37;;;;;;;1.15;0.60;;;23.70;43.50;;;;;;5064925;28;20112;-58
2021/05/21 02:47:03;;;;;;;1.15;0.68;;;23.70;43.60;;;;;;5069331;28;20024;-59
2021/05/21 02:49:31;;;;;;;1.02;0.60;;;23.70;43.60;;;;;;5069171;28;20031;-57
2021/05/21 02:51:56;;;;;;;0.40;0.40;;;23.60;43.50;;;;;;5069086;28;20055;-59
2021/05/21 02:54:22;;;;;;;0.75;0.50;;;23.70;43.60;;;;;;5064297;28;20197;-61
2021/05/21 02:56:48;;;;;;;1.02;0.50;;;23.60;43.50;;;;;;5069108;28;20030;-61
2021/05/21 02:59:14;;;;;;;0.98;0.63;;;23.60;43.60;;;;;;5067651;28;20065;-59
2021/05/21 03:01:41;;;;;;;1.10;0.60;;;23.60;43.50;;;;;;5069685;28;20906;-59
2021/05/21 03:04:06;;;;;;;0.50;0.50;;;23.60;43.60;;;;;;5067001;28;20355;-59
2021/05/21 03:06:32;;;;;;;0.85;0.60;;;23.60;43.70;;;;;;5069735;28;20029;-60
2021/05/21 03:08:57;;;;;;;0.82;0.50;;;23.60;43.60;;;;;;5063830;28;20056;-57
2021/05/21 03:11:23;;;;;;;0.60;0.60;;;23.60;43.60;;;;;;5062261;28;20120;-58
2021/05/21 03:13:49;;;;;;;0.73;0.60;;;23.60;43.70;;;;;;5065797;28;20455;-58
2021/05/21 03:16:15;;;;;;;0.70;0.55;;;23.60;43.70;;;;;;5062419;28;20025;-58
2021/05/21 03:18:40;;;;;;;0.50;0.50;;;23.60;43.70;;;;;;5066054;28;20040;-58
2021/05/21 03:21:06;;;;;;;0.47;0.47;;;23.50;43.60;;;;;;5064804;28;20056;-60
2021/05/21 03:23:33;;;;;;;0.75;0.63;;;23.50;43.70;;;;;;5059360;28;20085;-60
2021/05/21 03:25:59;;;;;;;0.70;0.60;;;23.50;43.70;;;;;;5052944;28;20119;-60
2021/05/21 03:28:24;;;;;;;0.90;0.70;;;23.50;43.70;;;;;;5064035;28;20618;-59
2021/05/21 03:30:50;;;;;;;0.70;0.60;;;23.50;43.70;;;;;;5067929;28;20399;-60
2021/05/21 03:33:16;;;;;;;0.75;0.55;;;23.50;43.70;;;;;;5066725;28;20075;-62
2021/05/21 03:35:42;;;;;;;1.17;0.50;;;23.40;43.60;;;;;;5062472;28;20032;-59
2021/05/21 03:38:08;;;;;;;0.80;0.60;;;23.50;43.70;;;;;;5066663;28;20033;-62
2021/05/21 03:40:37;;;;;;;0.60;0.47;;;23.50;43.70;;;;;;5069128;28;20059;-61
2021/05/21 03:43:03;;;;;;;1.33;0.67;;;23.40;43.70;;;;;;5068097;28;20468;-59
2021/05/21 03:45:29;;;;;;;0.55;0.50;;;23.40;43.70;;;;;;5065945;28;20081;-57
2021/05/21 03:47:55;;;;;;;0.50;0.50;;;23.40;43.70;;;;;;5067796;28;20024;-57
2021/05/21 03:50:22;;;;;;;0.90;0.50;;;23.40;43.70;;;;;;5067051;28;20044;-59
2021/05/21 03:52:48;;;;;;;0.52;0.52;;;23.40;43.70;;;;;;5067831;28;20032;-59
2021/05/21 03:55:16;;;;;;;0.82;0.50;;;23.40;43.70;;;;;;5059904;28;20092;-60
2021/05/21 03:57:43;;;;;;;0.95;0.68;;;23.40;43.70;;;;;;5068147;28;20036;-59
2021/05/21 04:00:14;;;;;;;1.33;0.60;;;23.40;43.70;;;;;;5066284;28;20036;-58
2021/05/21 04:02:40;;;;;;;0.68;0.60;;;23.40;43.70;;;;;;5057057;28;20037;-57
2021/05/21 04:05:07;;;;;;;0.63;0.47;;;23.40;43.70;;;;;;5065723;28;20036;-59
2021/05/21 04:07:32;;;;;;;1.02;0.50;;;23.40;43.70;;;;;;5067289;28;20154;-60
2021/05/21 04:09:58;;;;;;;0.47;0.47;;;23.40;43.70;;;;;;5066637;28;20099;-55
2021/05/21 04:12:28;;;;;;;0.70;0.50;;;23.40;43.70;;;;;;5065537;28;20028;-58
2021/05/21 04:14:54;;;;;;;0.93;0.60;;;23.40;43.70;;;;;;5053581;28;20041;-57
2021/05/21 04:17:20;;;;;;;1.15;0.60;;;23.30;43.70;;;;;;5067878;28;20032;-58
2021/05/21 04:19:47;;;;;;;0.55;0.55;;;23.30;43.70;;;;;;5065829;28;20408;-58
2021/05/21 04:22:13;;;;;;;0.40;0.40;;;23.30;43.80;;;;;;5066851;28;20029;-57
2021/05/21 04:24:39;;;;;;;0.55;0.55;;;23.30;43.80;;;;;;5063335;28;20374;-54
2021/05/21 04:27:06;;;;;;;0.73;0.60;;;23.30;43.80;;;;;;5067845;28;20351;-52
2021/05/21 04:29:31;;;;;;;0.65;0.50;;;23.30;43.80;;;;;;5063984;28;20478;-57
2021/05/21 04:31:57;;;;;;;0.75;0.57;;;23.30;43.80;;;;;;5054862;28;20106;-59
2021/05/21 04:34:22;;;;;;;0.85;0.55;;;23.30;43.80;;;;;;5063750;28;20359;-55
2021/05/21 04:36:48;;;;;;;0.93;0.60;;;23.30;43.80;;;;;;5067864;28;20036;-52
2021/05/21 04:39:14;;;;;;;0.65;0.50;;;23.30;43.80;;;;;;5063480;28;20097;-59
2021/05/21 04:41:39;;;;;;;0.52;0.50;;;23.30;43.80;;;;;;5067290;28;20069;-58
2021/05/21 04:44:05;;;;;;;0.73;0.52;;;23.20;43.80;;;;;;5060933;28;20063;-59
2021/05/21 04:46:30;;;;;;;0.68;0.57;;;23.20;43.80;;;;;;5062606;28;20458;-58
2021/05/21 04:48:56;;;;;;;0.63;0.60;;;23.30;43.90;;;;;;5064211;28;20032;-57
2021/05/21 04:51:22;;;;;;;0.68;0.60;;;23.20;43.80;;;;;;5067050;28;20372;-56
2021/05/21 04:53:47;;;;;;;0.52;0.50;;;23.20;43.80;;;;;;5062786;28;20123;-58
2021/05/21 04:56:13;;;;;;;0.80;0.55;;;23.20;43.80;;;;;;5065461;28;20477;-57
2021/05/21 04:58:39;;;;;;;1.27;0.60;;;23.20;43.80;;;;;;5054664;28;20040;-57
2021/05/21 05:01:04;;;;;;;0.93;0.60;;;23.20;43.80;;;;;;5063122;28;20044;-58
2021/05/21 05:03:30;;;;;;;0.98;0.60;;;23.20;43.80;;;;;;5056022;28;20020;-59
2021/05/21 05:05:56;;;;;;;1.77;0.60;;;23.20;43.80;;;;;;5063166;28;20045;-58
2021/05/21 05:08:22;;;;;;;0.73;0.52;;;23.10;43.80;;;;;;5061552;28;20435;-58
2021/05/21 05:10:49;;;;;;;0.50;0.50;;;23.20;43.80;;;;;;5063105;28;20122;-60
2021/05/21 05:13:18;;;;;;;0.63;0.45;;;23.10;43.80;;;;;;5064014;28;20029;-50
2021/05/21 05:15:47;;;;;;;1.83;0.60;;;23.10;43.80;;;;;;5066696;28;20028;-54
2021/05/21 05:18:13;;;;;;;0.77;0.60;;;23.10;43.80;;;;;;5061132;28;20521;-57
2021/05/21 05:20:39;;;;;;;0.85;0.55;;;23.10;43.80;;;;;;5056860;28;20178;-57
2021/05/21 05:23:08;;;;;;;1.05;0.50;;;23.10;43.80;;;;;;5063480;28;20033;-56
2021/05/21 05:25:33;;;;;;;0.98;0.50;;;23.10;43.80;;;;;;5053721;28;20020;-58
2021/05/21 05:28:00;;;;;;;0.63;0.50;;;23.10;43.80;;;;;;5063181;28;20047;-56
2021/05/21 05:30:26;;;;;;;0.45;0.45;;;23.10;43.80;;;;;;5072044;28;20037;-53
2021/05/21 05:32:51;;;;;;;1.17;0.50;;;23.10;43.80;;;;;;5061765;28;20036;-59
2021/05/21 05:35:17;;;;;;;0.88;0.63;;;23.10;43.90;;;;;;5061669;28;20192;-56
2021/05/21 05:37:43;;;;;;;0.50;0.43;;;23.10;43.90;;;;;;5059842;28;20035;-58
2021/05/21 05:40:09;;;;;;;0.90;0.70;;;23.10;43.90;;;;;;5059246;28;20455;-58
2021/05/21 05:42:35;;;;;;;0.75;0.50;;;23.10;43.80;;;;;;5059951;28;20039;-59
2021/05/21 05:45:01;;;;;;;1.00;0.52;;;23.10;43.90;;;;;;5062247;28;20499;-59
2021/05/21 05:47:26;;;;;;;1.05;0.50;;;23.10;43.90;;;;;;5065116;28;20095;-58
2021/05/21 05:49:52;;;;;;;1.30;0.60;;;23.10;43.90;;;;;;5057078;28;20056;-59
2021/05/21 05:52:18;;;;;;;0.88;0.52;;;23.10;43.90;;;;;;5060896;28;20051;-59
2021/05/21 05:54:44;;;;;;;0.73;0.60;;;23.10;43.90;;;;;;5063324;28;20078;-56
2021/05/21 05:57:09;;;;;;;1.25;0.60;;;23.10;43.90;;;;;;5065905;28;20171;-56
2021/05/21 05:59:35;;;;;;;0.68;0.50;;;23.00;43.90;;;;;;5063240;28;20033;-59
2021/05/21 06:02:01;;;;;;;0.50;0.50;;;23.00;43.90;;;;;;5065185;28;20123;-58
2021/05/21 06:04:27;;;;;;;0.45;0.40;;;23.00;43.90;;;;;;5064181;28;20029;-60
2021/05/21 06:06:52;;;;;;;0.60;0.50;;;23.00;43.90;;;;;;5060436;28;20086;-60
2021/05/21 06:09:18;;;;;;;1.45;0.60;;;23.00;43.90;;;;;;5062746;28;20131;-58
2021/05/21 06:11:44;;;;;;;0.50;0.50;;;23.00;43.90;;;;;;5064152;28;20029;-57
2021/05/21 06:14:10;;;;;;;0.57;0.52;;;23.00;43.90;;;;;;5060987;28;20028;-59
2021/05/21 06:16:35;;;;;;;0.55;0.55;;;23.00;43.90;;;;;;5069285;28;20024;-51
2021/05/21 06:19:01;;;;;;;1.38;0.60;;;23.00;43.90;;;;;;5064611;28;20219;-53
2021/05/21 06:21:27;;;;;;;0.40;0.40;;;23.00;44.00;;;;;;5064466;28;20033;-57
2021/05/21 06:23:53;;;;;;;0.77;0.50;;;23.00;43.90;;;;;;5058991;28;20039;-60
2021/05/21 06:28:45;;;;;;;0.50;0.40;;;23.00;43.90;;;;;;5065287;28;20024;-59
2021/05/21 06:31:11;;;;;;;0.77;0.50;;;23.00;43.90;;;;;;5056612;28;20037;-56
2021/05/21 06:33:37;;;;;;;0.70;0.60;;;23.00;43.90;;;;;;5061373;28;20029;-58
2021/05/21 06:36:03;;;;;;;0.82;0.60;;;23.00;44.00;;;;;;5062413;28;20112;-60
2021/05/21 06:38:28;;;;;;;0.50;0.50;;;23.00;44.00;;;;;;5067578;28;20107;-59
2021/05/21 06:40:54;;;;;;;1.35;0.90;;;23.00;44.00;;;;;;5064556;28;20293;-59
2021/05/21 06:43:20;;;;;;;0.60;0.40;;;23.00;44.00;;;;;;5063603;28;20040;-60
2021/05/21 06:45:48;;;;;;;1.48;0.60;;;23.00;44.50;;;;;;5064927;28;20651;-59
2021/05/21 06:48:14;;;;;;;0.75;0.50;;;22.90;43.90;;;;;;5067815;28;20098;-59
2021/05/21 06:50:40;;;;;;;0.70;0.60;;;22.90;44.00;;;;;;5054993;28;20804;-58
2021/05/21 06:53:06;;;;;;;0.75;0.50;;;23.00;44.00;;;;;;5062812;28;20040;-60
2021/05/21 06:55:32;;;;;;;0.95;0.55;;;23.00;44.10;;;;;;5059252;28;20423;-59
2021/05/21 06:57:58;;;;;;;0.95;0.60;;;22.90;44.10;;;;;;5060512;28;20055;-58
2021/05/21 07:00:24;;;;;;;0.70;0.60;;;23.00;44.20;;;;;;5064065;28;20624;-62
2021/05/21 07:02:50;;;;;;;0.70;0.50;;;22.90;44.10;;;;;;5056004;28;20464;-58
2021/05/21 07:05:15;;;;;;;0.50;0.40;;;23.00;44.20;;;;;;5063274;28;20093;-58
2021/05/21 07:07:41;;;;;;;0.73;0.55;;;23.00;44.20;;;;;;5067653;28;20074;-59
2021/05/21 07:10:08;;;;;;;1.05;0.60;;;22.90;44.20;;;;;;5064455;28;20157;-60
2021/05/21 07:12:34;;;;;;;0.88;0.50;;;23.00;44.20;;;;;;5062575;28;20047;-58
2021/05/21 07:15:00;;;;;;;0.73;0.60;;;22.90;44.20;;;;;;5061541;28;20374;-59
2021/05/21 07:17:26;;;;;;;0.52;0.50;;;22.90;44.20;;;;;;5065556;28;20113;-59
2021/05/21 07:19:52;;;;;;;1.40;0.70;;;22.90;44.30;;;;;;5064146;28;20053;-57
2021/05/21 07:22:18;;;;;;;1.15;0.50;;;22.90;44.20;;;;;;5065990;28;20064;-62
2021/05/21 07:24:43;;;;;;;1.23;0.60;;;22.90;44.20;;;;;;5065478;28;20106;-57
2021/05/21 07:27:09;;;;;;;1.25;0.70;;;22.90;44.30;;;;;;5064395;28;20409;-59
2021/05/21 07:29:35;;;;;;;0.82;0.60;;;22.90;44.30;;;;;;5065740;28;20040;-55
2021/05/21 07:32:01;;;;;;;1.15;0.70;;;22.90;44.30;;;;;;5064475;28;20684;-59
2021/05/21 07:34:26;;;;;;;0.73;0.60;;;22.90;44.30;;;;;;5062936;28;20094;-60
2021/05/21 07:36:52;;;;;;;0.82;0.60;;;23.00;44.40;;;;;;5059402;28;20029;-58
2021/05/21 07:39:18;;;;;;;2.08;0.63;;;22.90;44.30;;;;;;5055773;28;20064;-57
2021/05/21 07:41:44;;;;;;;0.70;0.52;;;22.90;44.30;;;;;;5067871;28;20183;-58
2021/05/21 07:44:11;;;;;;;0.70;0.60;;;22.90;44.30;;;;;;5056529;28;20042;-58
2021/05/21 07:46:37;;;;;;;0.60;0.50;;;22.90;44.40;;;;;;5065918;28;20116;-56
2021/05/21 07:49:03;;;;;;;0.57;0.57;;;22.90;44.40;;;;;;5060904;28;20075;-56
2021/05/21 07:51:31;;;;;;;1.02;0.60;;;22.90;44.40;;;;;;5064581;28;20652;-54
2021/05/21 07:53:56;;;;;;;0.80;0.40;;;22.90;44.40;;;;;;5060697;28;20103;-58
2021/05/21 07:56:22;;;;;;;1.08;0.57;;;22.90;44.40;;;;;;5057002;28;20123;-61
2021/05/21 07:58:48;;;;;;;0.77;0.57;;;22.90;44.40;;;;;;5061301;28;20147;-57
2021/05/21 08:01:13;;;;;;;0.95;0.57;;;22.90;44.40;;;;;;5056936;28;20143;-57
2021/05/21 08:03:39;;;;;;;0.65;0.45;;;22.90;44.40;;;;;;5063521;28;20025;-59
2021/05/21 08:06:05;;;;;;;0.88;0.60;;;22.90;44.40;;;;;;5056772;28;20447;-59
2021/05/21 08:08:32;;;;;;;0.70;0.50;;;22.90;44.40;;;;;;5056512;28;20028;-60
2021/05/21 08:11:01;;;;;;;0.93;0.60;;;22.90;44.40;;;;;;5065417;28;20123;-59
2021/05/21 08:13:27;;;;;;;0.50;0.50;;;22.90;44.50;;;;;;5065517;28;20047;-58
2021/05/21 08:15:52;;;;;;;0.50;0.50;;;22.90;44.40;;;;;;5063636;28;20044;-56
2021/05/21 08:18:19;;;;;;;1.23;0.70;;;22.90;44.40;;;;;;5046992;28;20095;-60
2021/05/21 08:20:45;;;;;;;0.77;0.40;;;22.90;44.40;;;;;;5061371;28;20495;-59
2021/05/21 08:23:13;;;;;;;0.85;0.70;;;22.90;44.40;;;;;;5062351;28;20036;-60
2021/05/21 08:25:39;;;;;;;0.65;0.60;;;22.90;44.50;;;;;;5061022;28;20112;-59
2021/05/21 08:28:05;;;;;;;2.60;0.90;;;22.90;44.40;;;;;;5062063;28;20095;-59
2021/05/21 08:30:30;;;;;;;1.73;0.60;;;22.90;44.50;;;;;;5067630;28;20094;-58
2021/05/21 08:32:56;;;;;;;0.70;0.60;;;22.90;44.50;;;;;;5062984;28;20388;-56
2021/05/21 08:35:24;;;;;;;0.65;0.60;;;22.90;44.70;;;;;;5067381;28;20162;-57
2021/05/21 08:37:50;;;;;;;1.30;0.60;;;22.90;44.50;;;;;;5066968;28;20032;-60
2021/05/21 08:40:23;;;;;;;0.85;0.50;;;22.90;44.50;;;;;;5059756;28;20028;-58
2021/05/21 08:42:57;;;;;;;0.77;0.60;;;22.90;44.50;;;;;;5058848;28;20106;-58
2021/05/21 08:45:23;;;;;;;0.82;0.60;;;22.90;44.50;;;;;;5066320;28;20028;-58
2021/05/21 08:47:49;;;;;;;0.68;0.60;;;22.90;44.50;;;;;;5066686;28;20435;-59
2021/05/21 08:50:15;;;;;;;0.90;0.60;;;22.90;44.50;;;;;;5065581;28;20028;-59
2021/05/21 08:52:42;;;;;;;0.90;0.50;;;22.90;44.50;;;;;;5064076;28;20036;-58
2021/05/21 08:55:09;;;;;;;0.60;0.60;;;22.90;44.50;;;;;;5062236;28;20048;-59
2021/05/21 08:57:35;;;;;;;1.27;0.57;;;22.90;44.50;;;;;;5065559;28;20037;-57
2021/05/21 09:00:00;;;;;;;0.82;0.70;;;22.90;44.60;;;;;;5065186;28;20035;-60
2021/05/21 09:02:28;;;;;;;0.75;0.60;;;22.90;44.60;;;;;;5064391;28;20102;-60
2021/05/21 09:04:58;;;;;;;0.82;0.50;;;22.90;44.60;;;;;;5065402;28;20029;-59
2021/05/21 09:07:26;;;;;;;0.60;0.50;;;22.90;44.60;;;;;;5066257;28;20024;-60
2021/05/21 09:09:53;;;;;;;0.73;0.50;;;22.90;44.60;;;;;;5064902;28;20106;-57
2021/05/21 09:12:20;;;;;;;0.85;0.50;;;22.90;44.60;;;;;;5065565;28;20041;-56
2021/05/21 09:15:13;;;;;;;0.70;0.60;;;22.90;44.70;;;;;;5064006;28;20031;-59
2021/05/21 09:17:55;;;;;;;0.52;0.50;;;22.90;44.70;;;;;;5064918;28;20024;-59
2021/05/21 09:20:25;;;;;;;1.60;0.57;;;22.90;44.70;;;;;;5060906;28;20035;-57
2021/05/21 09:23:09;;;;;;;1.25;0.60;;;22.90;44.70;;;;;;5064077;28;20032;-61
2021/05/21 09:25:42;;;;;;;1.77;0.60;;;22.90;44.70;;;;;;5059347;28;20333;-60
2021/05/21 09:28:36;;;;;;;0.82;0.60;;;22.90;44.70;;;;;;5064968;28;20052;-55
2021/05/21 09:31:12;;;;;;;1.00;0.70;;;22.90;44.70;;;;;;5061189;28;20604;-58
2021/05/21 09:33:40;;;;;;;1.20;0.80;;;22.90;44.70;;;;;;5057758;28;20056;-57
2021/05/21 09:36:07;;;;;;;0.50;0.50;;;22.90;44.70;;;;;;5058447;28;20149;-60
2021/05/21 09:38:53;;;;;;;1.58;0.68;;;22.90;44.60;;;;;;5060977;28;20025;-59
2021/05/21 09:41:19;;;;;;;0.70;0.60;;;22.90;44.60;;;;;;5058160;28;20029;-56
2021/05/21 09:44:00;;;;;;;1.85;0.70;;;22.90;44.50;;;;;;5054472;28;20046;-56
2021/05/21 09:46:48;;;;;;;0.65;0.50;;;22.90;44.50;;;;;;5063575;28;20525;-55
2021/05/21 09:49:27;;;;;;;1.83;0.60;;;22.90;44.50;;;;;;5056512;28;20064;-56
2021/05/21 09:51:54;;;;;;;0.97;0.50;;;22.90;44.50;;;;;;5061054;28;20041;-58
2021/05/21 09:54:19;;;;;;;1.67;0.77;;;22.90;44.50;;;;;;5052628;28;20317;-57
2021/05/21 09:57:05;;;;;;;1.02;0.60;;;22.90;44.50;;;;;;5052393;28;20512;-60
2021/05/21 09:59:46;;;;;;;0.50;0.50;;;22.90;44.50;;;;;;5061183;28;20037;-60
2021/05/21 10:02:29;;;;;;;2.25;0.60;;;22.90;44.50;;;;;;5058670;28;20044;-59
2021/05/21 10:04:55;;;;;;;0.98;0.70;;;22.90;44.50;;;;;;5051330;28;20635;-57
2021/05/21 10:07:22;;;;;;;0.68;0.50;;;22.80;44.40;;;;;;5059898;28;20044;-60
2021/05/21 10:09:48;;;;;;;0.93;0.60;;;22.80;44.40;;;;;;5061961;28;20021;-58
2021/05/21 10:12:15;;;;;;;1.48;0.60;;;22.90;44.40;;;;;;5065590;28;20032;-59
2021/05/21 10:14:51;;;;;;;1.38;0.60;;;22.80;44.40;;;;;;5068045;28;20101;-60
2021/05/21 10:17:24;;;;;;;1.40;0.73;;;22.80;44.40;;;;;;5060703;28;20037;-60
2021/05/21 10:19:53;;;;;;;0.73;0.50;;;22.80;44.40;;;;;;5055834;28;20162;-60
2021/05/21 10:22:40;;;;;;;0.88;0.60;;;22.80;44.40;;;;;;5056874;28;20750;-59
2021/05/21 10:25:19;;;;;;;1.10;0.70;;;22.90;44.40;;;;;;5062550;28;20173;-59
2021/05/21 10:27:47;;;;;;;1.65;0.60;;;22.80;44.30;;;;;;5058972;28;20032;-60
2021/05/21 10:30:15;;;;;;;2.03;0.80;;;22.80;44.40;;;;;;5057589;28;20025;-60
2021/05/21 10:32:40;;;;;;;1.15;0.60;;;22.80;44.40;;;;;;5058522;28;20383;-60
2021/05/21 10:35:21;;;;;;;0.77;0.52;;;22.80;44.40;;;;;;5058016;28;20037;-60
2021/05/21 10:37:47;;;;;;;1.88;0.70;;;22.80;44.40;;;;;;5056180;28;20097;-60
2021/05/21 10:40:25;;;;;;;0.60;0.57;;;22.80;44.40;;;;;;5059513;28;20451;-59
2021/05/21 10:42:52;;;;;;;0.93;0.60;;;22.80;44.40;;;;;;5065632;28;20041;-61
2021/05/21 10:45:23;;;;;;;1.88;0.98;;;22.90;44.50;;;;;;5057677;28;20032;-60
2021/05/21 10:47:59;;;;;;;1.00;0.70;;;22.80;44.40;;;;;;5064178;28;20031;-59
2021/05/21 10:50:37;;;;;;;1.88;0.73;;;22.80;44.40;;;;;;5063362;28;20192;-58
2021/05/21 10:53:06;;;;;;;2.42;0.70;;;22.80;44.40;;;;;;5062097;28;20024;-60
2021/05/21 10:55:41;;;;;;;1.40;0.70;;;22.80;44.40;;;;;;5062818;28;20046;-59
2021/05/21 10:58:06;;;;;;;1.55;0.60;;;22.80;44.40;;;;;;5065310;28;20035;-61
2021/05/21 11:00:34;;;;;;;2.00;0.70;;;22.80;44.40;;;;;;5061045;28;20028;-61
2021/05/21 11:03:00;;;;;;;2.22;0.80;;;22.80;44.40;;;;;;5057991;28;20032;-60
2021/05/21 11:05:28;;;;;;;1.88;0.68;;;22.80;44.40;;;;;;5066035;28;20447;-61
2021/05/21 11:07:59;;;;;;;1.30;0.77;;;22.80;44.40;;;;;;5065574;28;20063;-61
2021/05/21 11:10:46;;;;;;;1.10;0.70;;;22.80;44.40;;;;;;5063152;28;20082;-61
2021/05/21 11:13:16;;;;;;;1.52;0.80;;;22.80;44.40;;;;;;5063912;28;20172;-61
2021/05/21 11:15:47;;;;;;;1.85;0.70;;;22.80;44.40;;;;;;5064231;28;20043;-59
2021/05/21 11:18:13;;;;;;;1.48;0.70;;;22.80;44.40;;;;;;5066217;28;20063;-60
2021/05/21 11:21:03;;;;;;;1.23;0.60;;;22.80;44.30;;;;;;5061849;28;20036;-62
2021/05/21 11:23:37;;;;;;;1.33;0.70;;;22.80;44.40;;;;;;5059208;28;20152;-61
2021/05/21 11:26:22;;;;;;;2.00;0.80;;;22.80;44.30;;;;;;5061207;28;20024;-60
2021/05/21 11:28:50;;;;;;;1.65;0.80;;;22.80;44.30;;;;;;5064213;28;20582;-60
2021/05/21 11:31:17;;;;;;;1.10;0.60;;;22.80;44.30;;;;;;5064844;28;20375;-61
2021/05/21 11:33:51;;;;;;;1.70;0.75;;;22.80;44.40;;;;;;5062223;28;20659;-60
2021/05/21 11:36:19;;;;;;;1.70;0.80;;;22.80;44.30;;;;;;5056383;28;20380;-61
2021/05/21 11:38:44;;;;;;;1.30;0.70;;;22.80;44.40;;;;;;5063673;28;20106;-61
2021/05/21 11:41:14;;;;;;;0.98;0.60;;;22.80;44.30;;;;;;5063209;28;20048;-62
2021/05/21 11:43:42;;;;;;;0.95;0.60;;;22.80;44.30;;;;;;5062675;28;20086;-60
2021/05/21 11:46:21;;;;;;;1.00;0.60;;;22.80;44.80;;;;;;5060855;28;20120;-61
2021/05/21 11:48:49;;;;;;;2.00;0.80;;;22.70;44.30;;;;;;5055353;28;20161;-60
2021/05/21 11:51:22;;;;;;;1.63;0.70;;;22.70;44.20;;;;;;5063417;28;20033;-61
2021/05/21 11:53:51;;;;;;;1.50;0.80;;;22.80;44.30;;;;;;5062565;28;20135;-60
2021/05/21 11:56:31;;;;;;;1.52;0.80;;;22.70;44.20;;;;;;5062686;28;20033;-62
2021/05/21 11:59:04;;;;;;;2.10;0.82;;;22.70;44.40;;;;;;5060768;28;20028;-62
2021/05/21 12:01:32;;;;;;;1.73;0.75;;;22.70;44.30;;;;;;5053083;28;20102;-62
2021/05/21 12:04:05;;;;;;;1.45;0.90;;;22.70;44.30;;;;;;5045388;28;20504;-62
2021/05/21 12:06:31;;;;;;;1.00;0.70;;;22.70;44.30;;;;;;5064067;28;20799;-61
2021/05/21 12:08:57;;;;;;;1.00;0.60;;;22.70;44.30;;;;;;5058753;28;20909;-63
2021/05/21 12:11:26;;;;;;;1.60;0.98;;;22.70;44.30;;;;;;5064991;28;20059;-61
2021/05/21 12:13:52;;;;;;;2.15;1.05;;;22.70;44.30;;;;;;5058645;28;20036;-62
2021/05/21 12:16:19;;;;;;;1.75;0.80;;;22.70;44.30;;;;;;5062112;28;20139;-62
2021/05/21 12:18:46;;;;;;;1.67;0.70;;;22.70;44.30;;;;;;5061430;28;20051;-62
2021/05/21 12:21:19;;;;;;;1.95;0.80;;;22.70;44.30;;;;;;5063665;28;20060;-63
2021/05/21 12:23:46;;;;;;;1.55;0.80;;;22.70;44.30;;;;;;5056628;28;20139;-61
2021/05/21 12:26:12;;;;;;;1.85;0.90;;;22.70;44.30;;;;;;5063916;28;20036;-62
2021/05/21 12:28:39;;;;;;;1.10;0.70;;;22.70;44.30;;;;;;5061520;28;20434;-62
2021/05/21 12:31:07;;;;;;;2.20;0.80;;;22.70;44.30;;;;;;5046510;28;20067;-63
2021/05/21 12:33:34;;;;;;;1.38;0.75;;;22.70;44.30;;;;;;5052586;28;20032;-63
2021/05/21 12:36:11;;;;;;;1.95;0.85;;;22.70;44.30;;;;;;5063871;28;20040;-62
2021/05/21 12:38:36;;;;;;;2.15;1.20;;;22.70;44.30;;;;;;5056896;28;20052;-62
2021/05/21 12:41:02;;;;;;;2.22;0.80;;;22.70;44.30;;;;;;5062225;28;20184;-62
2021/05/21 12:43:30;;;;;;;1.77;0.80;;;22.70;44.30;;;;;;5055650;28;20327;-61
2021/05/21 12:46:03;;;;;;;1.48;0.77;;;22.70;44.80;;;;;;5064166;28;20044;-62
2021/05/21 12:48:35;;;;;;;1.10;0.80;;;22.70;44.30;;;;;;5063725;28;20115;-61
2021/05/21 12:51:18;;;;;;;1.77;0.82;;;22.70;44.30;;;;;;5060889;28;20210;-61
2021/05/21 12:53:46;;;;;;;1.45;0.90;;;22.70;44.30;;;;;;5060813;28;20085;-63